Avoca, Arkansas
Current Conditions -  °F | °C
As of 2:57 PM on Friday 28 Nov 2014 (Local Time) from KROG Reporting Station
Clear Clear  
Wind Chill: 15°   Ceiling: Unl
Heat Index: 15°   Visibility: 10mi
Dew Point:   Wind: 20mph
Humidity: 42%   Direction: 190°S
Pressure: 29.96"   Gusts: NA
Location:  36.4°N, 94.07°W
Report Text: KROG 282057Z 19017KT 10SM CLR 15/02 A2996 RMK AO2 SLP147 T01500022 56035
Loading
Personal Weather Stations






























Interactive Weather Map New forecast layout! Learn more

10-Day Weather Forecast

Advertisements
Track Severe Weather on mobile